createdAt,value
2023-05-02T00:00:10.292Z,91.87
2023-05-02T00:01:10.281Z,92.08
2023-05-02T00:02:10.305Z,92.18
2023-05-02T00:03:10.316Z,92.18
2023-05-02T00:04:10.371Z,92.12
2023-05-02T00:05:10.271Z,92.12
2023-05-02T00:06:10.245Z,92.12
2023-05-02T00:07:10.230Z,92.12
2023-05-02T00:08:10.199Z,92.22
2023-05-02T00:09:10.199Z,92.33
2023-05-02T00:10:10.256Z,92.22
2023-05-02T00:11:10.178Z,92.22
2023-05-02T00:12:10.213Z,92.33
2023-05-02T00:13:10.160Z,92.43
2023-05-02T00:14:10.108Z,92.47
2023-05-02T00:15:10.383Z,92.47
2023-05-02T00:16:10.114Z,92.57
2023-05-02T00:17:10.124Z,92.57
2023-05-02T00:18:10.306Z,92.57
2023-05-02T00:19:10.131Z,92.57
2023-05-02T00:20:10.058Z,92.57
2023-05-02T00:21:10.086Z,92.57
2023-05-02T00:22:10.036Z,92.68
2023-05-02T00:23:10.062Z,92.57
2023-05-02T00:24:10.042Z,92.57
2023-05-02T00:25:10.050Z,92.68
2023-05-02T00:26:09.978Z,92.72
2023-05-02T00:27:10.007Z,92.93
2023-05-02T00:28:09.980Z,92.93
2023-05-02T00:29:09.959Z,92.93
2023-05-02T00:30:09.948Z,92.93
2023-05-02T00:31:10.027Z,92.93
2023-05-02T00:32:09.913Z,93.03
2023-05-02T00:33:09.975Z,93.03
2023-05-02T00:34:09.904Z,93.13
2023-05-02T00:35:09.906Z,93.24
2023-05-02T00:36:10.158Z,93.24
2023-05-02T00:37:09.869Z,93.24
2023-05-02T00:38:09.843Z,93.34
2023-05-02T00:39:09.848Z,93.44
2023-05-02T00:40:09.837Z,93.44
2023-05-02T00:41:09.878Z,93.34
2023-05-02T00:42:09.809Z,93.44
2023-05-02T00:43:10.114Z,93.44
2023-05-02T00:44:09.771Z,93.54
2023-05-02T00:45:09.800Z,93.54
2023-05-02T00:46:09.837Z,93.54
2023-05-02T00:47:09.764Z,93.54
2023-05-02T00:48:09.748Z,93.54
2023-05-02T00:49:09.752Z,93.50
2023-05-02T00:50:09.764Z,93.40
2023-05-02T00:51:09.717Z,93.40
2023-05-02T00:52:09.684Z,93.40
2023-05-02T00:53:09.723Z,93.30
2023-05-02T00:54:09.704Z,93.30
2023-05-02T00:55:09.701Z,93.40
2023-05-02T00:56:10.207Z,93.40
2023-05-02T00:57:09.782Z,93.35
2023-05-02T00:58:09.658Z,93.35
2023-05-02T00:59:09.638Z,93.25
2023-05-02T01:00:09.604Z,93.15
2023-05-02T01:01:09.636Z,93.15
2023-05-02T01:02:09.692Z,93.09
2023-05-02T01:03:09.688Z,93.09
2023-05-02T01:04:09.669Z,93.09
2023-05-02T01:05:09.568Z,92.99
2023-05-02T01:06:09.587Z,92.78
2023-05-02T01:07:09.557Z,92.68
2023-05-02T01:08:09.493Z,92.57
2023-05-02T01:09:09.578Z,92.47
2023-05-02T01:10:09.488Z,92.47
2023-05-02T01:11:09.478Z,92.57
2023-05-02T01:12:09.462Z,92.72
2023-05-02T01:13:09.471Z,92.82
2023-05-02T01:14:09.450Z,92.93
2023-05-02T01:15:09.450Z,92.93
2023-05-02T01:16:09.471Z,93.03
2023-05-02T01:17:09.559Z,93.03
2023-05-02T01:18:09.418Z,93.03
2023-05-02T01:19:09.412Z,92.93
2023-05-02T01:20:09.375Z,92.97
2023-05-02T01:21:09.388Z,92.97
2023-05-02T01:22:09.447Z,93.07
2023-05-02T01:23:09.359Z,93.18
2023-05-02T01:24:09.329Z,93.28
2023-05-02T01:25:09.327Z,93.28
2023-05-02T01:26:09.307Z,93.38
2023-05-02T01:27:09.304Z,93.38
2023-05-02T01:28:09.270Z,93.53
2023-05-02T01:29:09.296Z,93.53
2023-05-02T01:30:09.283Z,93.53
2023-05-02T01:31:09.317Z,93.53
2023-05-02T01:32:09.335Z,93.63
2023-05-02T01:33:09.272Z,93.63
2023-05-02T01:34:09.254Z,93.84
2023-05-02T01:35:09.219Z,93.94
2023-05-02T01:36:09.178Z,94.04
2023-05-02T01:37:09.573Z,94.25
2023-05-02T01:38:09.240Z,94.35
2023-05-02T01:39:09.189Z,94.35
2023-05-02T01:40:09.208Z,94.46
2023-05-02T01:41:09.152Z,94.56
2023-05-02T01:42:09.108Z,94.56
2023-05-02T01:43:09.156Z,94.67
2023-05-02T01:44:09.104Z,94.67
2023-05-02T01:45:09.125Z,94.77
2023-05-02T01:46:09.097Z,94.67
2023-05-02T01:47:09.201Z,94.71
2023-05-02T01:48:09.127Z,94.60
2023-05-02T01:49:09.102Z,94.71
2023-05-02T01:50:09.086Z,94.71
2023-05-02T01:51:09.078Z,94.71
2023-05-02T01:52:08.995Z,94.81
2023-05-02T01:53:09.127Z,94.81
2023-05-02T01:54:09.004Z,94.81
2023-05-02T01:55:08.986Z,94.92
2023-05-02T01:56:08.957Z,94.92
2023-05-02T01:57:09.815Z,94.92
2023-05-02T01:58:08.930Z,94.97
2023-05-02T01:59:08.946Z,95.07
2023-05-02T02:00:08.947Z,95.18
2023-05-02T02:01:08.957Z,95.28
2023-05-02T02:02:08.877Z,95.28
2023-05-02T02:03:08.992Z,95.39
2023-05-02T02:04:08.892Z,95.39
2023-05-02T02:05:09.116Z,95.39
2023-05-02T02:06:08.864Z,95.49
2023-05-02T02:07:08.877Z,95.49
2023-05-02T02:08:08.821Z,95.45
2023-05-02T02:09:08.877Z,95.45
2023-05-02T02:10:08.799Z,95.34
2023-05-02T02:11:08.812Z,95.34
2023-05-02T02:12:08.788Z,95.24
2023-05-02T02:13:08.798Z,95.14
2023-05-02T02:14:08.758Z,95.03
2023-05-02T02:15:08.760Z,94.93
2023-05-02T02:16:08.758Z,94.82
2023-05-02T02:17:08.783Z,94.62
2023-05-02T02:18:08.773Z,94.47
2023-05-02T02:19:08.762Z,94.37
2023-05-02T02:20:08.703Z,94.27
2023-05-02T02:21:08.739Z,94.17
2023-05-02T02:22:08.657Z,94.06
2023-05-02T02:23:08.709Z,93.96
2023-05-02T02:24:08.622Z,93.75
2023-05-02T02:25:08.717Z,93.54
2023-05-02T02:26:08.608Z,93.44
2023-05-02T02:27:08.615Z,93.24
2023-05-02T02:28:08.589Z,93.13
2023-05-02T02:29:08.608Z,93.13
2023-05-02T02:30:08.560Z,93.03
2023-05-02T02:31:08.666Z,93.13
2023-05-02T02:32:08.662Z,93.13
2023-05-02T02:33:08.573Z,93.13
2023-05-02T02:34:08.528Z,93.13
2023-05-02T02:35:08.545Z,93.13
2023-05-02T02:36:08.523Z,93.03
2023-05-02T02:37:08.603Z,92.88
2023-05-02T02:38:08.564Z,92.88
2023-05-02T02:39:08.482Z,92.88
2023-05-02T02:40:08.452Z,92.88
2023-05-02T02:41:08.489Z,92.78
2023-05-02T02:42:08.422Z,92.57
2023-05-02T02:43:08.481Z,92.47
2023-05-02T02:44:08.399Z,92.37
2023-05-02T02:45:08.416Z,92.37
2023-05-02T02:46:08.397Z,92.27
2023-05-02T02:47:08.381Z,92.37
2023-05-02T02:48:08.396Z,92.37
2023-05-02T02:49:08.398Z,92.47
2023-05-02T02:50:08.350Z,92.57
2023-05-02T02:51:08.350Z,92.57
2023-05-02T02:52:08.334Z,92.68
2023-05-02T02:53:08.305Z,92.68
2023-05-02T02:54:23.013Z,92.88
2023-05-02T02:55:09.329Z,92.94
2023-05-02T02:56:08.285Z,93.05
2023-05-02T02:57:08.238Z,92.94
2023-05-02T02:58:08.350Z,92.94
2023-05-02T02:59:08.433Z,92.94
2023-05-02T03:00:08.270Z,92.84
2023-05-02T03:01:08.195Z,92.84
2023-05-02T03:02:08.428Z,92.84
2023-05-02T03:03:08.288Z,92.84
2023-05-02T03:04:08.252Z,92.84
2023-05-02T03:05:08.142Z,92.84
2023-05-02T03:06:08.204Z,92.84
2023-05-02T03:07:08.122Z,92.84
2023-05-02T03:08:08.146Z,92.84
2023-05-02T03:09:08.163Z,92.88
2023-05-02T03:10:08.134Z,92.99
2023-05-02T03:11:08.091Z,93.09
2023-05-02T03:12:08.086Z,93.09
2023-05-02T03:13:08.080Z,93.09
2023-05-02T03:14:08.078Z,93.19
2023-05-02T03:15:08.038Z,93.19
2023-05-02T03:16:08.120Z,93.30
2023-05-02T03:17:08.092Z,93.30
2023-05-02T03:18:08.103Z,93.40
2023-05-02T03:19:07.992Z,93.40
2023-05-02T03:20:08.070Z,93.60
2023-05-02T03:21:07.961Z,93.81
2023-05-02T03:22:07.979Z,93.81
2023-05-02T03:23:07.938Z,93.81
2023-05-02T03:24:08.052Z,93.85
2023-05-02T03:25:07.945Z,93.96
2023-05-02T03:26:07.934Z,94.06
2023-05-02T03:27:07.905Z,94.17
2023-05-02T03:28:07.912Z,94.23
2023-05-02T03:29:07.984Z,94.32
2023-05-02T03:30:07.895Z,94.53
2023-05-02T03:31:07.924Z,94.64
2023-05-02T03:32:07.961Z,94.64
2023-05-02T03:33:08.213Z,94.64
2023-05-02T03:34:07.843Z,94.70
2023-05-02T03:35:07.814Z,94.70
2023-05-02T03:36:07.803Z,94.70
2023-05-02T03:37:07.798Z,94.70
2023-05-02T03:38:07.897Z,94.70
2023-05-02T03:39:07.913Z,94.70
2023-05-02T03:40:08.081Z,94.49
2023-05-02T03:41:07.783Z,94.34
2023-05-02T03:42:07.747Z,94.24
2023-05-02T03:43:07.722Z,94.03
2023-05-02T03:44:07.814Z,94.03
2023-05-02T03:45:07.738Z,94.03
2023-05-02T03:46:07.732Z,93.93
2023-05-02T03:47:07.813Z,93.88
2023-05-02T03:48:07.768Z,93.79
2023-05-02T03:49:07.662Z,93.79
2023-05-02T03:50:07.695Z,93.68
2023-05-02T03:51:07.634Z,93.58
2023-05-02T03:52:07.634Z,93.48
2023-05-02T03:53:07.606Z,93.43
2023-05-02T03:54:07.642Z,93.33
2023-05-02T03:55:07.588Z,93.23
2023-05-02T03:56:07.592Z,93.02
2023-05-02T03:57:07.550Z,92.92
2023-05-02T03:58:07.623Z,92.71
2023-05-02T03:59:07.550Z,92.61
2023-05-02T04:00:07.903Z,92.50
2023-05-02T04:01:07.556Z,92.40
2023-05-02T04:02:07.583Z,92.36
2023-05-02T04:03:07.572Z,92.36
2023-05-02T04:04:07.578Z,92.36
2023-05-02T04:05:07.490Z,92.25
2023-05-02T04:06:07.557Z,92.25
2023-05-02T04:07:07.461Z,92.25
2023-05-02T04:08:07.458Z,92.52
2023-05-02T04:09:07.437Z,92.73
2023-05-02T04:10:07.466Z,92.73
2023-05-02T04:11:07.414Z,92.73
2023-05-02T04:12:07.472Z,92.93
2023-05-02T04:13:07.394Z,93.14
2023-05-02T04:14:07.450Z,93.24
2023-05-02T04:15:07.371Z,93.20
2023-05-02T04:16:07.380Z,93.20
2023-05-02T04:17:07.501Z,93.20
2023-05-02T04:18:07.423Z,93.20
2023-05-02T04:19:07.304Z,93.10
2023-05-02T04:20:08.100Z,93.20
2023-05-02T04:21:07.306Z,93.20
2023-05-02T04:22:07.323Z,93.16
2023-05-02T04:23:07.293Z,93.26
2023-05-02T04:24:07.301Z,93.26
2023-05-02T04:25:07.279Z,93.26
2023-05-02T04:26:07.277Z,93.26
2023-05-02T04:27:07.220Z,93.16
2023-05-02T04:28:07.232Z,93.16
2023-05-02T04:29:07.211Z,93.16
2023-05-02T04:30:07.218Z,93.12
2023-05-02T04:31:07.223Z,93.12
2023-05-02T04:32:07.203Z,93.01
2023-05-02T04:33:07.212Z,93.01
2023-05-02T04:34:07.170Z,92.91
2023-05-02T04:35:07.156Z,92.91
2023-05-02T04:36:07.165Z,92.80
2023-05-02T04:37:07.130Z,92.80
2023-05-02T04:38:07.219Z,92.70
2023-05-02T04:39:07.127Z,92.60
2023-05-02T04:40:07.114Z,92.50
2023-05-02T04:41:09.221Z,92.40
2023-05-02T04:42:07.092Z,92.40
2023-05-02T04:43:07.033Z,92.40
2023-05-02T04:44:07.066Z,92.35
2023-05-02T04:45:07.044Z,92.25
2023-05-02T04:46:07.069Z,92.14
2023-05-02T04:47:07.011Z,92.04
2023-05-02T04:48:07.045Z,92.04
2023-05-02T04:49:06.970Z,91.84
2023-05-02T04:50:06.998Z,91.74
2023-05-02T04:51:07.013Z,91.63
2023-05-02T04:52:06.972Z,91.63
2023-05-02T04:53:06.914Z,91.63
2023-05-02T04:54:07.003Z,91.74
2023-05-02T04:55:06.935Z,91.63
2023-05-02T04:56:06.908Z,91.59
2023-05-02T04:57:06.888Z,91.59
2023-05-02T04:58:06.990Z,91.59
2023-05-02T04:59:06.872Z,91.49
2023-05-02T05:00:06.874Z,91.38
2023-05-02T05:01:07.129Z,91.28
2023-05-02T05:02:07.021Z,91.28
2023-05-02T05:03:06.933Z,91.18
2023-05-02T05:04:06.933Z,91.08
2023-05-02T05:05:07.034Z,90.97
2023-05-02T05:06:06.853Z,91.08
2023-05-02T05:07:06.780Z,91.18
2023-05-02T05:08:06.874Z,91.08
2023-05-02T05:09:06.782Z,90.87
2023-05-02T05:10:06.780Z,90.87
2023-05-02T05:11:06.745Z,90.87
2023-05-02T05:12:06.794Z,90.77
2023-05-02T05:13:06.753Z,90.77
2023-05-02T05:14:06.743Z,90.83
2023-05-02T05:15:06.745Z,90.73
2023-05-02T05:16:06.722Z,90.62
2023-05-02T05:17:06.904Z,90.52
2023-05-02T05:18:06.708Z,90.52
2023-05-02T05:19:06.643Z,90.32
2023-05-02T05:20:07.698Z,90.32
2023-05-02T05:21:06.633Z,90.22
2023-05-02T05:22:06.754Z,90.22
2023-05-02T05:23:06.633Z,90.11
2023-05-02T05:24:06.610Z,90.11
2023-05-02T05:25:06.577Z,89.81
2023-05-02T05:26:06.600Z,89.90
2023-05-02T05:27:06.666Z,89.90
2023-05-02T05:28:06.577Z,89.81
2023-05-02T05:29:06.640Z,90.01
2023-05-02T05:30:06.546Z,90.32
2023-05-02T05:31:06.571Z,90.42
2023-05-02T05:32:06.815Z,90.01
2023-05-02T05:33:06.535Z,89.90
2023-05-02T05:34:06.585Z,89.81
2023-05-02T05:35:06.531Z,89.81
2023-05-02T05:36:06.532Z,89.81
2023-05-02T05:37:06.425Z,89.60
2023-05-02T05:38:06.546Z,88.98
2023-05-02T05:39:07.546Z,88.78
2023-05-02T05:40:06.409Z,88.78
2023-05-02T05:41:06.384Z,88.88
2023-05-02T05:42:06.689Z,88.88
2023-05-02T05:43:06.734Z,88.84
2023-05-02T05:44:06.353Z,88.64
2023-05-02T05:45:06.350Z,88.23
2023-05-02T05:46:06.356Z,88.02
2023-05-02T05:47:06.412Z,87.71
2023-05-02T05:48:06.571Z,87.41
2023-05-02T05:49:06.851Z,87.37
2023-05-02T05:50:06.308Z,87.57
2023-05-02T05:51:06.311Z,87.37
2023-05-02T05:52:06.444Z,87.06
2023-05-02T05:53:06.505Z,86.44
2023-05-02T05:54:06.252Z,86.34
2023-05-02T05:55:06.243Z,86.51
2023-05-02T05:56:06.566Z,86.61
2023-05-02T05:57:06.190Z,86.40
2023-05-02T05:58:06.226Z,86.20
2023-05-02T05:59:06.312Z,86.20
2023-05-02T06:00:06.303Z,85.99
2023-05-02T06:01:06.699Z,85.75
2023-05-02T06:02:06.553Z,85.64
2023-05-02T06:03:08.132Z,85.44
2023-05-02T06:04:06.198Z,84.93
2023-05-02T06:05:06.152Z,84.93
2023-05-02T06:06:06.403Z,85.03
2023-05-02T06:07:06.260Z,85.14
2023-05-02T06:08:06.092Z,84.93
2023-05-02T06:09:06.083Z,84.93
2023-05-02T06:10:06.094Z,84.52
2023-05-02T06:11:06.113Z,84.63
2023-05-02T06:12:06.069Z,84.52
2023-05-02T06:13:06.030Z,84.42
2023-05-02T06:14:06.029Z,84.42
2023-05-02T06:15:06.025Z,84.22
2023-05-02T06:16:06.467Z,84.11
2023-05-02T06:17:05.960Z,84.31
2023-05-02T06:18:06.043Z,84.83
2023-05-02T06:19:05.945Z,85.03
2023-05-02T06:20:05.950Z,84.87
2023-05-02T06:21:05.955Z,84.36
2023-05-02T06:22:05.951Z,84.56
2023-05-02T06:23:06.644Z,84.56
2023-05-02T06:24:06.466Z,84.56
2023-05-02T06:25:05.863Z,84.46
2023-05-02T06:26:05.897Z,84.77
2023-05-02T06:27:05.857Z,84.56
2023-05-02T06:28:05.881Z,84.46
2023-05-02T06:29:05.934Z,84.56
2023-05-02T06:30:06.005Z,84.52
2023-05-02T06:31:06.141Z,84.22
2023-05-02T06:32:05.960Z,84.01
2023-05-02T06:33:05.923Z,84.01
2023-05-02T06:34:05.930Z,83.95
2023-05-02T06:35:05.762Z,84.31
2023-05-02T06:36:05.799Z,84.63
2023-05-02T06:37:05.806Z,84.63
2023-05-02T06:38:05.752Z,84.31
2023-05-02T06:39:05.709Z,84.01
2023-05-02T06:40:05.852Z,84.22
2023-05-02T06:41:05.690Z,84.31
2023-05-02T06:42:05.738Z,84.63
2023-05-02T06:43:05.666Z,85.03
2023-05-02T06:44:05.772Z,84.83
2023-05-02T06:45:05.855Z,84.93
2023-05-02T06:46:05.645Z,85.10
2023-05-02T06:47:05.648Z,85.40
2023-05-02T06:48:05.672Z,85.61
2023-05-02T06:49:05.613Z,85.26
2023-05-02T06:50:05.616Z,84.95
2023-05-02T06:51:05.568Z,84.65
2023-05-02T06:52:05.603Z,84.14
2023-05-02T06:53:05.551Z,84.50
2023-05-02T06:54:05.547Z,84.20
2023-05-02T06:55:05.521Z,83.48
2023-05-02T06:56:05.582Z,83.69
2023-05-02T06:57:05.554Z,84.20
2023-05-02T06:58:05.535Z,84.61
2023-05-02T06:59:05.491Z,84.71
2023-05-02T07:00:05.523Z,84.36
2023-05-02T07:01:05.517Z,84.47
2023-05-02T07:02:05.715Z,84.16
2023-05-02T07:03:05.509Z,83.54
2023-05-02T07:04:05.560Z,83.75
2023-05-02T07:05:05.427Z,83.75
2023-05-02T07:06:05.478Z,83.24
2023-05-02T07:07:05.743Z,83.44
2023-05-02T07:08:05.486Z,83.24
2023-05-02T07:09:05.406Z,82.73
2023-05-02T07:10:05.381Z,82.32
2023-05-02T07:11:05.406Z,82.93
2023-05-02T07:12:07.097Z,83.54
2023-05-02T07:13:05.331Z,83.85
2023-05-02T07:14:05.318Z,83.54
2023-05-02T07:15:05.368Z,83.04
2023-05-02T07:16:05.327Z,83.04
2023-05-02T07:17:05.396Z,83.10
2023-05-02T07:18:05.310Z,83.30
2023-05-02T07:19:05.296Z,83.10
2023-05-02T07:20:05.601Z,81.87
2023-05-02T07:21:05.284Z,81.73
2023-05-02T07:22:05.319Z,81.53
2023-05-02T07:23:05.565Z,81.23
2023-05-02T07:24:05.524Z,80.71
2023-05-02T07:25:05.592Z,80.85
2023-05-02T07:26:06.432Z,81.53
2023-05-02T07:27:05.212Z,81.94
2023-05-02T07:28:05.141Z,82.14
2023-05-02T07:29:05.169Z,82.24
2023-05-02T07:30:05.162Z,82.35
2023-05-02T07:31:05.153Z,82.65
2023-05-02T07:32:05.170Z,82.35
2023-05-02T07:33:05.201Z,82.75
2023-05-02T07:34:05.125Z,82.96
2023-05-02T07:35:05.148Z,83.37
2023-05-02T07:36:05.056Z,83.57
2023-05-02T07:37:05.065Z,83.47
2023-05-02T07:38:05.082Z,82.96
2023-05-02T07:39:05.129Z,83.16
2023-05-02T07:40:05.237Z,82.82
2023-05-02T07:41:05.075Z,82.71
2023-05-02T07:42:05.022Z,82.41
2023-05-02T07:43:05.057Z,82.31
2023-05-02T07:44:04.985Z,81.29
2023-05-02T07:45:05.171Z,81.18
2023-05-02T07:46:05.006Z,81.04
2023-05-02T07:47:04.993Z,81.35
2023-05-02T07:48:04.952Z,81.45
2023-05-02T07:49:04.934Z,80.84
2023-05-02T07:50:04.953Z,80.54
2023-05-02T07:51:04.969Z,80.13
2023-05-02T07:52:04.912Z,80.23
2023-05-02T07:53:04.946Z,78.97
2023-05-02T07:54:04.872Z,77.85
2023-05-02T07:55:04.928Z,77.85
2023-05-02T07:56:05.000Z,77.95
2023-05-02T07:57:05.057Z,78.56
2023-05-02T07:58:04.828Z,77.95
2023-05-02T07:59:05.686Z,76.93
2023-05-02T08:00:05.112Z,77.68
2023-05-02T08:01:04.856Z,77.27
2023-05-02T08:02:05.386Z,77.51
2023-05-02T08:03:05.320Z,78.64
2023-05-02T08:04:04.898Z,78.74
2023-05-02T08:05:04.878Z,77.92
2023-05-02T08:06:04.946Z,78.19
2023-05-02T08:07:04.781Z,78.50
2023-05-02T08:08:04.745Z,77.85
2023-05-02T08:09:04.835Z,77.55
2023-05-02T08:10:04.807Z,77.34
2023-05-02T08:11:04.708Z,77.75
2023-05-02T08:12:05.083Z,76.93
2023-05-02T08:13:04.670Z,76.69
2023-05-02T08:14:04.670Z,76.49
2023-05-02T08:15:04.659Z,76.08
2023-05-02T08:16:04.700Z,76.08
2023-05-02T08:17:04.622Z,75.78
2023-05-02T08:18:04.621Z,75.98
2023-05-02T08:19:04.672Z,76.08
2023-05-02T08:20:05.364Z,76.25
2023-05-02T08:21:04.637Z,75.95
2023-05-02T08:22:04.544Z,76.04
2023-05-02T08:23:04.600Z,76.11
2023-05-02T08:24:04.635Z,75.87
2023-05-02T08:25:04.568Z,74.82
2023-05-02T08:26:04.753Z,73.50
2023-05-02T08:27:04.714Z,73.57
2023-05-02T08:28:04.486Z,72.31
2023-05-02T08:29:04.584Z,72.08
2023-05-02T08:30:04.809Z,70.65
2023-05-02T08:31:04.502Z,70.32
2023-05-02T08:32:04.656Z,71.44
2023-05-02T08:33:04.480Z,71.44
2023-05-02T08:34:04.437Z,70.92
2023-05-02T08:35:04.456Z,70.11
2023-05-02T08:36:04.429Z,69.43
2023-05-02T08:37:04.393Z,70.65
2023-05-02T08:38:04.358Z,69.74
2023-05-02T08:39:04.405Z,69.67
2023-05-02T08:40:04.682Z,70.08
2023-05-02T08:41:04.539Z,70.28
2023-05-02T08:42:04.380Z,70.89
2023-05-02T08:43:04.356Z,70.48
2023-05-02T08:44:04.362Z,70.59
2023-05-02T08:45:04.332Z,72.25
2023-05-02T08:46:04.394Z,71.64
2023-05-02T08:47:04.295Z,72.96
2023-05-02T08:48:04.314Z,72.89
2023-05-02T08:49:04.267Z,72.78
2023-05-02T08:50:04.225Z,72.89
2023-05-02T08:51:04.411Z,72.21
2023-05-02T08:52:04.234Z,72.82
2023-05-02T08:53:04.207Z,74.04
2023-05-02T08:54:04.191Z,73.87
2023-05-02T08:55:04.426Z,75.09
2023-05-02T08:56:04.154Z,76.11
2023-05-02T08:57:04.175Z,75.91
2023-05-02T08:58:04.114Z,76.42
2023-05-02T08:59:04.147Z,76.82
2023-05-02T09:00:04.132Z,76.96
2023-05-02T09:01:04.169Z,76.96
2023-05-02T09:02:04.113Z,76.86
2023-05-02T09:03:04.620Z,76.79
2023-05-02T09:04:04.200Z,77.61
2023-05-02T09:05:04.104Z,77.00
2023-05-02T09:06:04.064Z,77.40
2023-05-02T09:07:04.063Z,77.20
2023-05-02T09:08:04.064Z,76.56
2023-05-02T09:09:04.036Z,76.35
2023-05-02T09:10:04.081Z,76.62
2023-05-02T09:11:04.047Z,77.03
2023-05-02T09:12:03.974Z,76.68
2023-05-02T09:13:04.049Z,76.14
2023-05-02T09:14:04.092Z,74.01
2023-05-02T09:15:03.977Z,74.52
2023-05-02T09:16:03.968Z,73.87
2023-05-02T09:17:04.101Z,73.77
2023-05-02T09:18:03.941Z,72.82
2023-05-02T09:19:04.703Z,73.39
2023-05-02T09:20:03.957Z,71.57
2023-05-02T09:21:03.878Z,72.08
2023-05-02T09:22:03.952Z,70.76
2023-05-02T09:23:03.904Z,72.55
2023-05-02T09:24:03.940Z,71.40
2023-05-02T09:25:03.921Z,70.79
2023-05-02T09:26:03.897Z,69.44
2023-05-02T09:27:03.904Z,68.49
2023-05-02T09:28:03.790Z,66.06
2023-05-02T09:29:03.810Z,66.06
2023-05-02T09:30:03.788Z,66.97
2023-05-02T09:31:03.832Z,66.16
2023-05-02T09:32:03.793Z,65.39
2023-05-02T09:33:03.813Z,67.21
2023-05-02T09:34:03.708Z,67.89
2023-05-02T09:35:03.742Z,66.74
2023-05-02T09:36:03.708Z,65.53
2023-05-02T09:37:03.723Z,65.70
2023-05-02T09:38:03.672Z,64.58
2023-05-02T09:39:03.682Z,64.79
2023-05-02T09:40:03.649Z,63.90
2023-05-02T09:41:04.486Z,63.73
2023-05-02T09:42:03.655Z,64.78
2023-05-02T09:43:03.646Z,65.82
2023-05-02T09:44:03.749Z,65.31
2023-05-02T09:45:03.657Z,66.43
2023-05-02T09:46:03.647Z,66.63
2023-05-02T09:47:03.921Z,66.70
2023-05-02T09:48:04.011Z,66.40
2023-05-02T09:49:03.703Z,65.28
2023-05-02T09:50:03.596Z,64.98
2023-05-02T09:51:03.642Z,65.28
2023-05-02T09:52:03.913Z,64.17
2023-05-02T09:53:04.263Z,64.64
2023-05-02T09:54:03.561Z,64.24
2023-05-02T09:55:03.546Z,63.96
2023-05-02T09:56:03.521Z,63.35
2023-05-02T09:57:03.756Z,64.07
2023-05-02T09:58:03.843Z,64.37
2023-05-02T09:59:03.444Z,64.98
2023-05-02T10:00:03.667Z,62.85
2023-05-02T10:01:03.524Z,63.56
2023-05-02T10:02:03.520Z,62.14
2023-05-02T10:03:03.492Z,61.97
2023-05-02T10:04:03.501Z,63.18
2023-05-02T10:05:03.707Z,64.50
2023-05-02T10:06:03.686Z,63.92
2023-05-02T10:07:03.389Z,64.43
2023-05-02T10:08:03.373Z,64.33
2023-05-02T10:09:03.354Z,63.85
2023-05-02T10:10:03.329Z,65.00
2023-05-02T10:11:03.337Z,65.20
2023-05-02T10:12:03.363Z,65.30
2023-05-02T10:13:03.284Z,64.49
2023-05-02T10:14:03.625Z,63.37
2023-05-02T10:15:03.309Z,63.81
2023-05-02T10:16:03.389Z,64.32
2023-05-02T10:17:03.284Z,64.12
2023-05-02T10:18:03.313Z,64.83
2023-05-02T10:19:03.365Z,65.13
2023-05-02T10:20:03.202Z,65.54
2023-05-02T10:21:03.253Z,65.30
2023-05-02T10:22:03.204Z,64.29
2023-05-02T10:23:03.215Z,62.97
2023-05-02T10:24:03.177Z,64.26
2023-05-02T10:25:03.660Z,63.45
2023-05-02T10:26:03.643Z,63.52
2023-05-02T10:27:03.179Z,62.40
2023-05-02T10:28:03.113Z,61.59
2023-05-02T10:29:03.151Z,62.02
2023-05-02T10:30:03.103Z,62.74
2023-05-02T10:31:03.366Z,63.01
2023-05-02T10:32:03.206Z,62.60
2023-05-02T10:33:03.141Z,62.81
2023-05-02T10:34:03.038Z,61.69
2023-05-02T10:35:03.261Z,61.18
2023-05-02T10:36:03.407Z,62.20
2023-05-02T10:37:03.053Z,61.59
2023-05-02T10:38:03.012Z,62.20
2023-05-02T10:39:02.997Z,62.13
2023-05-02T10:40:03.104Z,62.23
2023-05-02T10:41:03.019Z,62.26
2023-05-02T10:42:03.114Z,61.78
2023-05-02T10:43:03.087Z,62.41
2023-05-02T10:44:02.942Z,62.65
2023-05-02T10:45:03.216Z,63.36
2023-05-02T10:46:03.076Z,64.99
2023-05-02T10:47:03.106Z,63.97
2023-05-02T10:48:03.024Z,64.48
2023-05-02T10:49:02.954Z,64.48
2023-05-02T10:50:02.951Z,63.94
2023-05-02T10:51:02.950Z,63.23
2023-05-02T10:52:02.861Z,63.00
2023-05-02T10:53:03.561Z,62.29
2023-05-02T10:54:02.837Z,62.46
2023-05-02T10:55:02.860Z,62.94
2023-05-02T10:56:02.779Z,62.63
2023-05-02T10:57:02.807Z,61.52
2023-05-02T10:58:02.784Z,61.93
2023-05-02T10:59:02.832Z,61.79
2023-05-02T11:00:02.834Z,61.79
2023-05-02T11:01:02.868Z,61.99
2023-05-02T11:02:04.544Z,61.39
2023-05-02T11:03:03.125Z,61.05
2023-05-02T11:04:02.833Z,60.47
2023-05-02T11:05:03.287Z,60.44
2023-05-02T11:06:02.865Z,60.78
2023-05-02T11:07:02.697Z,60.35
2023-05-02T11:08:02.854Z,60.58
2023-05-02T11:09:02.700Z,61.18
2023-05-02T11:10:02.683Z,61.08
2023-05-02T11:11:02.672Z,61.49
2023-05-02T11:12:02.650Z,61.18
2023-05-02T11:13:02.634Z,61.39
2023-05-02T11:14:02.622Z,61.79
2023-05-02T11:15:02.805Z,61.49
2023-05-02T11:16:02.655Z,61.69
2023-05-02T11:17:02.671Z,61.90
2023-05-02T11:18:02.702Z,62.33
2023-05-02T11:19:02.805Z,62.63
2023-05-02T11:20:02.540Z,62.53
2023-05-02T11:21:02.570Z,62.81
2023-05-02T11:22:02.524Z,62.91
2023-05-02T11:23:02.511Z,62.17
2023-05-02T11:24:02.484Z,61.87
2023-05-02T11:25:02.699Z,61.43
2023-05-02T11:26:02.539Z,61.16
2023-05-02T11:27:02.669Z,61.02
2023-05-02T11:28:02.437Z,61.00
2023-05-02T11:29:02.430Z,61.07
2023-05-02T11:30:02.551Z,59.55
2023-05-02T11:31:02.438Z,59.95
2023-05-02T11:32:02.468Z,59.85
2023-05-02T11:33:02.404Z,59.65
2023-05-02T11:34:02.463Z,59.95
2023-05-02T11:35:02.728Z,60.03
2023-05-02T11:36:02.592Z,59.72
2023-05-02T11:37:02.576Z,59.32
2023-05-02T11:38:02.807Z,58.81
2023-05-02T11:39:02.898Z,58.58
2023-05-02T11:40:02.335Z,58.48
2023-05-02T11:41:02.290Z,57.98
2023-05-02T11:42:02.417Z,58.41
2023-05-02T11:43:02.444Z,58.41
2023-05-02T11:44:02.342Z,59.22
2023-05-02T11:45:02.606Z,59.01
2023-05-02T11:46:02.738Z,58.74
2023-05-02T11:47:02.771Z,59.25
2023-05-02T11:48:02.427Z,58.84
2023-05-02T11:49:02.262Z,58.44
2023-05-02T11:50:02.216Z,59.45
2023-05-02T11:51:02.305Z,59.34
2023-05-02T11:52:02.176Z,58.74
2023-05-02T11:53:02.261Z,58.67
2023-05-02T11:54:02.225Z,58.87
2023-05-02T11:55:02.487Z,58.47
2023-05-02T11:56:02.243Z,58.69
2023-05-02T11:57:02.128Z,59.91
2023-05-02T11:58:02.128Z,60.42
2023-05-02T11:59:02.113Z,60.35
2023-05-02T12:00:02.175Z,61.16
2023-05-02T12:01:02.051Z,60.93
2023-05-02T12:02:02.071Z,59.81
2023-05-02T12:03:02.208Z,60.01
2023-05-02T12:04:02.100Z,60.14
2023-05-02T12:05:02.277Z,59.74
2023-05-02T12:06:02.297Z,59.97
2023-05-02T12:07:02.130Z,60.58
2023-05-02T12:08:03.540Z,59.18
2023-05-02T12:09:01.990Z,59.72
2023-05-02T12:10:01.984Z,61.24
2023-05-02T12:11:01.947Z,60.60
2023-05-02T12:12:02.062Z,60.60
2023-05-02T12:13:01.946Z,60.37
2023-05-02T12:14:01.929Z,60.24
2023-05-02T12:15:02.409Z,59.23
2023-05-02T12:16:01.973Z,59.41
2023-05-02T12:17:01.877Z,57.58
2023-05-02T12:18:02.087Z,57.48
2023-05-02T12:19:01.859Z,56.99
2023-05-02T12:20:01.930Z,58.09
2023-05-02T12:21:01.940Z,57.28
2023-05-02T12:22:02.332Z,57.55
2023-05-02T12:23:01.817Z,57.42
2023-05-02T12:24:01.854Z,56.89
2023-05-02T12:25:02.124Z,55.98
2023-05-02T12:26:01.859Z,55.37
2023-05-02T12:27:02.024Z,55.44
2023-05-02T12:28:01.939Z,55.04
2023-05-02T12:29:01.759Z,54.51
2023-05-02T12:30:02.025Z,54.82
2023-05-02T12:31:01.753Z,54.51
2023-05-02T12:32:01.782Z,53.50
2023-05-02T12:33:01.783Z,54.21
2023-05-02T12:34:01.869Z,54.28
2023-05-02T12:35:01.670Z,53.98
2023-05-02T12:36:01.847Z,53.98
2023-05-02T12:37:01.688Z,53.58
2023-05-02T12:38:01.799Z,53.80
2023-05-02T12:39:01.658Z,54.58
2023-05-02T12:40:01.966Z,55.19
2023-05-02T12:41:01.741Z,54.49
2023-05-02T12:42:01.778Z,54.25
2023-05-02T12:43:01.571Z,54.25
2023-05-02T12:44:01.786Z,54.36
2023-05-02T12:45:01.568Z,53.52
2023-05-02T12:46:01.576Z,53.22
2023-05-02T12:47:01.609Z,53.32
2023-05-02T12:48:01.629Z,53.52
2023-05-02T12:49:01.670Z,53.32
2023-05-02T12:50:01.754Z,52.54
2023-05-02T12:51:01.562Z,53.05
2023-05-02T12:52:01.771Z,52.94